Terminal Aerodrome Forecast
Issued by NWS Charleston, SC

Home | Current Version | Previous Version | Text Only | Print | Product List | Glossary On
Versions: 1 2 3 4 5 6 7 8 9 10 11 12 13 14 15 16 17 18 19 20 21 22 23 24 25 26 27 28 29 30
000
FTUS42 KCHS 041129
TAFSAV
TAF
KSAV 041129Z 0412/0512 19010KT P6SM BKN040 WS010/22040KT
     FM041400 21012G20KT P6SM BKN040
     FM042200 15016G26KT P6SM SCT040
     FM050100 20005KT P6SM FEW020 WS015/22040KT=

USA.gov is the U.S. government's official web portal to all federal, state and local government web resources and services.